sensor_id;sensor_type;location;lat;lon;timestamp;P1;durP1;ratioP1;P2;durP2;ratioP2
9449;SDS011;4763;48.370;10.874;2023-09-30T00:02:05;28.97;;;13.17;;
9449;SDS011;4763;48.370;10.874;2023-09-30T00:04:52;25.70;;;11.13;;
9449;SDS011;4763;48.370;10.874;2023-09-30T00:07:39;29.00;;;12.13;;
9449;SDS011;4763;48.370;10.874;2023-09-30T00:10:26;26.77;;;11.43;;
9449;SDS011;4763;48.370;10.874;2023-09-30T00:13:15;28.60;;;12.67;;
9449;SDS011;4763;48.370;10.874;2023-09-30T00:16:02;24.67;;;12.60;;
9449;SDS011;4763;48.370;10.874;2023-09-30T00:18:51;27.27;;;12.07;;
9449;SDS011;4763;48.370;10.874;2023-09-30T00:21:39;28.97;;;11.13;;
9449;SDS011;4763;48.370;10.874;2023-09-30T00:24:26;27.50;;;12.30;;
9449;SDS011;4763;48.370;10.874;2023-09-30T00:27:14;28.87;;;11.63;;
9449;SDS011;4763;48.370;10.874;2023-09-30T00:30:01;28.80;;;11.43;;
9449;SDS011;4763;48.370;10.874;2023-09-30T00:32:49;26.43;;;11.43;;
9449;SDS011;4763;48.370;10.874;2023-09-30T00:35:37;26.13;;;11.80;;
9449;SDS011;4763;48.370;10.874;2023-09-30T00:38:24;29.90;;;12.47;;
9449;SDS011;4763;48.370;10.874;2023-09-30T00:41:11;27.43;;;11.77;;
9449;SDS011;4763;48.370;10.874;2023-09-30T00:43:59;28.03;;;11.70;;
9449;SDS011;4763;48.370;10.874;2023-09-30T00:46:46;27.47;;;11.67;;
9449;SDS011;4763;48.370;10.874;2023-09-30T00:49:33;25.10;;;11.80;;
9449;SDS011;4763;48.370;10.874;2023-09-30T00:52:22;27.23;;;11.40;;
9449;SDS011;4763;48.370;10.874;2023-09-30T00:55:09;28.07;;;12.03;;
9449;SDS011;4763;48.370;10.874;2023-09-30T00:57:56;27.77;;;11.43;;
9449;SDS011;4763;48.370;10.874;2023-09-30T01:00:43;27.73;;;11.93;;
9449;SDS011;4763;48.370;10.874;2023-09-30T01:03:30;25.03;;;10.80;;
9449;SDS011;4763;48.370;10.874;2023-09-30T01:06:18;25.33;;;11.40;;
9449;SDS011;4763;48.370;10.874;2023-09-30T01:09:06;25.63;;;12.00;;
9449;SDS011;4763;48.370;10.874;2023-09-30T01:11:54;23.10;;;11.23;;
9449;SDS011;4763;48.370;10.874;2023-09-30T01:14:41;27.20;;;11.03;;
9449;SDS011;4763;48.370;10.874;2023-09-30T01:17:29;25.73;;;11.40;;
9449;SDS011;4763;48.370;10.874;2023-09-30T01:20:16;27.63;;;12.00;;
9449;SDS011;4763;48.370;10.874;2023-09-30T01:23:06;27.83;;;11.43;;
9449;SDS011;4763;48.370;10.874;2023-09-30T01:25:57;27.97;;;11.57;;
9449;SDS011;4763;48.370;10.874;2023-09-30T01:28:48;24.27;;;11.07;;
9449;SDS011;4763;48.370;10.874;2023-09-30T01:31:35;32.20;;;12.47;;
9449;SDS011;4763;48.370;10.874;2023-09-30T01:34:22;29.87;;;12.43;;
9449;SDS011;4763;48.370;10.874;2023-09-30T01:37:09;26.20;;;12.63;;
9449;SDS011;4763;48.370;10.874;2023-09-30T01:39:58;29.30;;;11.77;;
9449;SDS011;4763;48.370;10.874;2023-09-30T01:42:45;26.27;;;11.53;;
9449;SDS011;4763;48.370;10.874;2023-09-30T01:45:32;27.17;;;11.77;;
9449;SDS011;4763;48.370;10.874;2023-09-30T01:48:20;26.70;;;11.23;;
9449;SDS011;4763;48.370;10.874;2023-09-30T01:51:07;29.27;;;12.07;;
9449;SDS011;4763;48.370;10.874;2023-09-30T01:53:54;26.57;;;12.90;;
9449;SDS011;4763;48.370;10.874;2023-09-30T01:56:43;29.13;;;10.77;;
9449;SDS011;4763;48.370;10.874;2023-09-30T01:59:30;27.00;;;11.30;;
9449;SDS011;4763;48.370;10.874;2023-09-30T02:02:18;26.80;;;11.10;;
9449;SDS011;4763;48.370;10.874;2023-09-30T02:05:05;28.50;;;11.67;;
9449;SDS011;4763;48.370;10.874;2023-09-30T02:07:53;27.43;;;10.63;;
9449;SDS011;4763;48.370;10.874;2023-09-30T02:10:41;22.10;;;11.23;;
9449;SDS011;4763;48.370;10.874;2023-09-30T02:13:30;26.53;;;11.03;;
9449;SDS011;4763;48.370;10.874;2023-09-30T02:16:18;30.80;;;13.07;;
9449;SDS011;4763;48.370;10.874;2023-09-30T02:19:05;28.30;;;11.60;;
9449;SDS011;4763;48.370;10.874;2023-09-30T02:21:52;25.23;;;10.83;;
9449;SDS011;4763;48.370;10.874;2023-09-30T02:24:39;29.27;;;11.67;;
9449;SDS011;4763;48.370;10.874;2023-09-30T02:27:26;24.10;;;11.47;;
9449;SDS011;4763;48.370;10.874;2023-09-30T02:30:15;29.30;;;11.17;;
9449;SDS011;4763;48.370;10.874;2023-09-30T02:33:02;24.20;;;10.90;;
9449;SDS011;4763;48.370;10.874;2023-09-30T02:35:52;27.50;;;11.87;;
9449;SDS011;4763;48.370;10.874;2023-09-30T02:38:39;30.63;;;11.70;;
9449;SDS011;4763;48.370;10.874;2023-09-30T02:41:26;25.90;;;11.83;;
9449;SDS011;4763;48.370;10.874;2023-09-30T02:44:14;29.67;;;11.70;;
9449;SDS011;4763;48.370;10.874;2023-09-30T02:47:02;25.07;;;11.10;;
9449;SDS011;4763;48.370;10.874;2023-09-30T02:49:50;23.17;;;10.47;;
9449;SDS011;4763;48.370;10.874;2023-09-30T02:52:37;25.37;;;11.70;;
9449;SDS011;4763;48.370;10.874;2023-09-30T02:55:26;28.40;;;11.27;;
9449;SDS011;4763;48.370;10.874;2023-09-30T02:58:13;28.10;;;11.00;;
9449;SDS011;4763;48.370;10.874;2023-09-30T03:01:00;30.57;;;11.23;;
9449;SDS011;4763;48.370;10.874;2023-09-30T03:03:48;25.63;;;10.80;;
9449;SDS011;4763;48.370;10.874;2023-09-30T03:06:35;24.20;;;10.50;;
9449;SDS011;4763;48.370;10.874;2023-09-30T03:09:23;21.33;;;10.40;;
9449;SDS011;4763;48.370;10.874;2023-09-30T03:12:11;25.33;;;10.00;;
9449;SDS011;4763;48.370;10.874;2023-09-30T03:14:59;28.00;;;10.40;;
9449;SDS011;4763;48.370;10.874;2023-09-30T03:17:49;26.33;;;11.17;;
9449;SDS011;4763;48.370;10.874;2023-09-30T03:20:38;25.73;;;10.80;;
9449;SDS011;4763;48.370;10.874;2023-09-30T03:23:28;24.60;;;9.63;;
9449;SDS011;4763;48.370;10.874;2023-09-30T03:26:16;25.20;;;11.23;;
9449;SDS011;4763;48.370;10.874;2023-09-30T03:29:03;22.33;;;10.27;;
9449;SDS011;4763;48.370;10.874;2023-09-30T03:31:51;26.83;;;10.97;;
9449;SDS011;4763;48.370;10.874;2023-09-30T03:34:38;22.77;;;10.57;;
9449;SDS011;4763;48.370;10.874;2023-09-30T03:37:31;24.83;;;9.47;;
9449;SDS011;4763;48.370;10.874;2023-09-30T03:40:18;24.27;;;10.37;;
9449;SDS011;4763;48.370;10.874;2023-09-30T03:43:13;23.37;;;10.27;;
9449;SDS011;4763;48.370;10.874;2023-09-30T03:46:00;22.90;;;9.33;;
9449;SDS011;4763;48.370;10.874;2023-09-30T03:48:47;21.63;;;9.50;;
9449;SDS011;4763;48.370;10.874;2023-09-30T03:51:34;23.03;;;9.90;;
9449;SDS011;4763;48.370;10.874;2023-09-30T03:54:23;19.53;;;9.10;;
9449;SDS011;4763;48.370;10.874;2023-09-30T03:57:12;22.03;;;10.17;;
9449;SDS011;4763;48.370;10.874;2023-09-30T04:00:01;16.27;;;8.10;;
9449;SDS011;4763;48.370;10.874;2023-09-30T04:02:51;23.70;;;9.67;;
9449;SDS011;4763;48.370;10.874;2023-09-30T04:05:43;23.50;;;9.17;;
9449;SDS011;4763;48.370;10.874;2023-09-30T04:08:30;23.70;;;9.07;;
9449;SDS011;4763;48.370;10.874;2023-09-30T04:11:20;24.07;;;9.70;;
9449;SDS011;4763;48.370;10.874;2023-09-30T04:14:07;23.17;;;8.87;;
9449;SDS011;4763;48.370;10.874;2023-09-30T04:16:54;20.27;;;8.93;;
9449;SDS011;4763;48.370;10.874;2023-09-30T04:19:41;20.50;;;9.00;;
9449;SDS011;4763;48.370;10.874;2023-09-30T04:22:28;20.23;;;9.43;;
9449;SDS011;4763;48.370;10.874;2023-09-30T04:25:16;21.87;;;9.23;;
9449;SDS011;4763;48.370;10.874;2023-09-30T04:28:06;24.57;;;9.50;;
9449;SDS011;4763;48.370;10.874;2023-09-30T04:30:54;24.90;;;8.93;;
9449;SDS011;4763;48.370;10.874;2023-09-30T04:33:41;25.47;;;9.50;;
9449;SDS011;4763;48.370;10.874;2023-09-30T04:36:28;21.53;;;8.47;;
9449;SDS011;4763;48.370;10.874;2023-09-30T04:39:16;18.33;;;8.47;;
9449;SDS011;4763;48.370;10.874;2023-09-30T04:42:03;22.43;;;9.20;;
9449;SDS011;4763;48.370;10.874;2023-09-30T04:44:52;21.00;;;9.53;;
9449;SDS011;4763;48.370;10.874;2023-09-30T04:47:39;20.33;;;9.30;;
9449;SDS011;4763;48.370;10.874;2023-09-30T04:50:26;21.80;;;8.43;;
9449;SDS011;4763;48.370;10.874;2023-09-30T04:53:15;21.70;;;8.23;;
9449;SDS011;4763;48.370;10.874;2023-09-30T04:56:03;20.83;;;8.70;;
9449;SDS011;4763;48.370;10.874;2023-09-30T04:58:50;17.83;;;8.67;;
9449;SDS011;4763;48.370;10.874;2023-09-30T05:01:39;20.07;;;8.50;;
9449;SDS011;4763;48.370;10.874;2023-09-30T05:04:26;22.57;;;9.67;;
9449;SDS011;4763;48.370;10.874;2023-09-30T05:07:15;19.87;;;8.23;;
9449;SDS011;4763;48.370;10.874;2023-09-30T05:10:02;18.73;;;9.20;;
9449;SDS011;4763;48.370;10.874;2023-09-30T05:12:53;23.23;;;8.87;;
9449;SDS011;4763;48.370;10.874;2023-09-30T05:15:40;18.03;;;8.50;;
9449;SDS011;4763;48.370;10.874;2023-09-30T05:18:29;20.30;;;8.93;;
9449;SDS011;4763;48.370;10.874;2023-09-30T05:21:16;20.87;;;8.57;;
9449;SDS011;4763;48.370;10.874;2023-09-30T05:24:04;21.17;;;9.80;;
9449;SDS011;4763;48.370;10.874;2023-09-30T05:26:51;22.57;;;9.57;;
9449;SDS011;4763;48.370;10.874;2023-09-30T05:29:38;24.40;;;8.80;;
9449;SDS011;4763;48.370;10.874;2023-09-30T05:32:25;21.10;;;9.07;;
9449;SDS011;4763;48.370;10.874;2023-09-30T05:35:14;19.20;;;8.27;;
9449;SDS011;4763;48.370;10.874;2023-09-30T05:38:02;21.30;;;8.50;;
9449;SDS011;4763;48.370;10.874;2023-09-30T05:40:51;18.47;;;7.77;;
9449;SDS011;4763;48.370;10.874;2023-09-30T05:43:40;18.17;;;7.87;;
9449;SDS011;4763;48.370;10.874;2023-09-30T05:46:30;20.17;;;7.97;;
9449;SDS011;4763;48.370;10.874;2023-09-30T05:49:17;19.97;;;9.00;;
9449;SDS011;4763;48.370;10.874;2023-09-30T05:52:05;15.87;;;7.10;;
9449;SDS011;4763;48.370;10.874;2023-09-30T05:54:53;19.00;;;7.27;;
9449;SDS011;4763;48.370;10.874;2023-09-30T05:57:40;20.73;;;7.97;;
9449;SDS011;4763;48.370;10.874;2023-09-30T06:00:27;18.80;;;7.53;;
9449;SDS011;4763;48.370;10.874;2023-09-30T06:03:30;19.03;;;7.73;;
9449;SDS011;4763;48.370;10.874;2023-09-30T06:06:18;16.97;;;8.30;;
9449;SDS011;4763;48.370;10.874;2023-09-30T06:09:05;16.70;;;7.63;;
9449;SDS011;4763;48.370;10.874;2023-09-30T06:11:53;15.87;;;7.07;;
9449;SDS011;4763;48.370;10.874;2023-09-30T06:14:40;17.43;;;6.97;;
9449;SDS011;4763;48.370;10.874;2023-09-30T06:17:27;16.80;;;7.67;;
9449;SDS011;4763;48.370;10.874;2023-09-30T06:20:15;14.90;;;6.40;;
9449;SDS011;4763;48.370;10.874;2023-09-30T06:23:03;20.07;;;7.30;;
9449;SDS011;4763;48.370;10.874;2023-09-30T06:25:50;15.73;;;6.53;;
9449;SDS011;4763;48.370;10.874;2023-09-30T06:28:38;15.63;;;5.77;;
9449;SDS011;4763;48.370;10.874;2023-09-30T06:31:26;14.67;;;5.80;;
9449;SDS011;4763;48.370;10.874;2023-09-30T06:34:14;14.33;;;5.87;;
9449;SDS011;4763;48.370;10.874;2023-09-30T06:37:03;17.10;;;6.37;;
9449;SDS011;4763;48.370;10.874;2023-09-30T06:39:50;15.20;;;6.97;;
9449;SDS011;4763;48.370;10.874;2023-09-30T06:42:38;15.77;;;6.87;;
9449;SDS011;4763;48.370;10.874;2023-09-30T06:45:26;13.50;;;5.87;;
9449;SDS011;4763;48.370;10.874;2023-09-30T06:48:13;14.80;;;6.60;;
9449;SDS011;4763;48.370;10.874;2023-09-30T06:51:00;13.30;;;5.77;;
9449;SDS011;4763;48.370;10.874;2023-09-30T06:53:49;11.90;;;5.43;;
9449;SDS011;4763;48.370;10.874;2023-09-30T06:56:37;11.03;;;4.73;;
9449;SDS011;4763;48.370;10.874;2023-09-30T06:59:24;14.33;;;6.20;;
9449;SDS011;4763;48.370;10.874;2023-09-30T07:02:11;16.10;;;6.40;;
9449;SDS011;4763;48.370;10.874;2023-09-30T07:04:58;15.70;;;5.93;;
9449;SDS011;4763;48.370;10.874;2023-09-30T07:07:45;9.97;;;5.37;;
9449;SDS011;4763;48.370;10.874;2023-09-30T07:10:33;13.33;;;6.13;;
9449;SDS011;4763;48.370;10.874;2023-09-30T07:13:21;12.13;;;5.57;;
9449;SDS011;4763;48.370;10.874;2023-09-30T07:16:08;12.27;;;5.73;;
9449;SDS011;4763;48.370;10.874;2023-09-30T07:18:55;14.13;;;5.77;;
9449;SDS011;4763;48.370;10.874;2023-09-30T07:21:42;13.47;;;5.77;;
9449;SDS011;4763;48.370;10.874;2023-09-30T07:24:31;11.00;;;4.83;;
9449;SDS011;4763;48.370;10.874;2023-09-30T07:27:20;10.00;;;5.30;;
9449;SDS011;4763;48.370;10.874;2023-09-30T07:30:08;10.33;;;4.50;;
9449;SDS011;4763;48.370;10.874;2023-09-30T07:32:57;12.40;;;4.87;;
9449;SDS011;4763;48.370;10.874;2023-09-30T07:35:44;9.93;;;4.53;;
9449;SDS011;4763;48.370;10.874;2023-09-30T07:38:31;9.20;;;3.93;;
9449;SDS011;4763;48.370;10.874;2023-09-30T07:41:19;9.93;;;4.13;;
9449;SDS011;4763;48.370;10.874;2023-09-30T07:44:07;9.90;;;4.27;;
9449;SDS011;4763;48.370;10.874;2023-09-30T07:46:55;11.23;;;4.97;;
9449;SDS011;4763;48.370;10.874;2023-09-30T07:49:42;9.70;;;4.33;;
9449;SDS011;4763;48.370;10.874;2023-09-30T07:52:29;8.70;;;4.03;;
9449;SDS011;4763;48.370;10.874;2023-09-30T07:55:16;8.53;;;4.13;;
9449;SDS011;4763;48.370;10.874;2023-09-30T07:58:03;8.90;;;4.33;;
9449;SDS011;4763;48.370;10.874;2023-09-30T08:00:52;9.87;;;4.33;;
9449;SDS011;4763;48.370;10.874;2023-09-30T08:03:39;8.27;;;4.17;;
9449;SDS011;4763;48.370;10.874;2023-09-30T08:06:26;8.00;;;3.90;;
9449;SDS011;4763;48.370;10.874;2023-09-30T08:09:13;7.77;;;3.77;;
9449;SDS011;4763;48.370;10.874;2023-09-30T08:12:01;7.20;;;4.00;;
9449;SDS011;4763;48.370;10.874;2023-09-30T08:14:48;8.50;;;3.37;;
9449;SDS011;4763;48.370;10.874;2023-09-30T08:17:38;6.13;;;3.70;;
9449;SDS011;4763;48.370;10.874;2023-09-30T08:20:25;5.33;;;3.27;;
9449;SDS011;4763;48.370;10.874;2023-09-30T08:23:13;7.00;;;3.30;;
9449;SDS011;4763;48.370;10.874;2023-09-30T08:26:00;5.90;;;3.27;;
9449;SDS011;4763;48.370;10.874;2023-09-30T08:28:47;9.30;;;4.20;;
9449;SDS011;4763;48.370;10.874;2023-09-30T08:31:34;8.23;;;3.57;;
9449;SDS011;4763;48.370;10.874;2023-09-30T08:34:23;6.50;;;4.07;;
9449;SDS011;4763;48.370;10.874;2023-09-30T08:37:10;7.70;;;2.93;;
9449;SDS011;4763;48.370;10.874;2023-09-30T08:39:57;6.83;;;4.07;;
9449;SDS011;4763;48.370;10.874;2023-09-30T08:42:44;8.53;;;3.73;;
9449;SDS011;4763;48.370;10.874;2023-09-30T08:45:31;5.13;;;3.17;;
9449;SDS011;4763;48.370;10.874;2023-09-30T08:48:25;7.93;;;3.37;;
9449;SDS011;4763;48.370;10.874;2023-09-30T08:51:14;7.43;;;3.43;;
9449;SDS011;4763;48.370;10.874;2023-09-30T08:54:02;7.17;;;4.17;;
9449;SDS011;4763;48.370;10.874;2023-09-30T08:56:50;7.70;;;3.53;;
9449;SDS011;4763;48.370;10.874;2023-09-30T08:59:38;5.67;;;3.47;;
9449;SDS011;4763;48.370;10.874;2023-09-30T09:02:28;8.27;;;3.70;;
9449;SDS011;4763;48.370;10.874;2023-09-30T09:05:15;5.80;;;3.10;;
9449;SDS011;4763;48.370;10.874;2023-09-30T09:08:04;6.03;;;3.17;;
9449;SDS011;4763;48.370;10.874;2023-09-30T09:10:54;7.17;;;3.83;;
9449;SDS011;4763;48.370;10.874;2023-09-30T09:13:47;6.83;;;3.83;;
9449;SDS011;4763;48.370;10.874;2023-09-30T09:16:36;4.67;;;3.03;;
9449;SDS011;4763;48.370;10.874;2023-09-30T09:19:23;7.38;;;3.67;;
9449;SDS011;4763;48.370;10.874;2023-09-30T09:22:10;10.18;;;4.22;;
9449;SDS011;4763;48.370;10.874;2023-09-30T09:24:58;7.13;;;3.72;;
9449;SDS011;4763;48.370;10.874;2023-09-30T09:27:46;8.00;;;3.70;;
9449;SDS011;4763;48.370;10.874;2023-09-30T09:30:33;8.73;;;3.10;;
9449;SDS011;4763;48.370;10.874;2023-09-30T09:33:31;9.18;;;3.63;;
9449;SDS011;4763;48.370;10.874;2023-09-30T09:36:22;6.43;;;3.65;;
9449;SDS011;4763;48.370;10.874;2023-09-30T09:39:28;4.97;;;3.40;;
9449;SDS011;4763;48.370;10.874;2023-09-30T09:42:28;8.18;;;4.00;;
9449;SDS011;4763;48.370;10.874;2023-09-30T09:45:16;5.88;;;3.63;;
9449;SDS011;4763;48.370;10.874;2023-09-30T09:48:04;6.82;;;3.38;;
9449;SDS011;4763;48.370;10.874;2023-09-30T09:50:52;7.95;;;3.63;;
9449;SDS011;4763;48.370;10.874;2023-09-30T09:53:40;10.75;;;4.25;;
9449;SDS011;4763;48.370;10.874;2023-09-30T09:56:28;6.90;;;4.15;;
9449;SDS011;4763;48.370;10.874;2023-09-30T09:59:16;6.07;;;3.28;;
9449;SDS011;4763;48.370;10.874;2023-09-30T10:02:04;6.20;;;4.03;;
9449;SDS011;4763;48.370;10.874;2023-09-30T10:04:56;4.38;;;3.17;;
9449;SDS011;4763;48.370;10.874;2023-09-30T10:07:45;6.82;;;4.10;;
9449;SDS011;4763;48.370;10.874;2023-09-30T10:10:40;7.05;;;3.40;;
9449;SDS011;4763;48.370;10.874;2023-09-30T10:16:48;5.32;;;3.47;;
9449;SDS011;4763;48.370;10.874;2023-09-30T10:19:36;6.85;;;3.90;;
9449;SDS011;4763;48.370;10.874;2023-09-30T10:22:49;7.32;;;3.35;;
9449;SDS011;4763;48.370;10.874;2023-09-30T10:26:18;6.13;;;3.28;;
9449;SDS011;4763;48.370;10.874;2023-09-30T10:29:08;6.65;;;3.67;;
9449;SDS011;4763;48.370;10.874;2023-09-30T10:31:56;7.80;;;3.28;;
9449;SDS011;4763;48.370;10.874;2023-09-30T10:34:47;5.82;;;3.25;;
9449;SDS011;4763;48.370;10.874;2023-09-30T10:37:34;7.45;;;3.38;;
9449;SDS011;4763;48.370;10.874;2023-09-30T10:40:27;7.60;;;3.35;;
9449;SDS011;4763;48.370;10.874;2023-09-30T10:43:28;6.03;;;3.65;;
9449;SDS011;4763;48.370;10.874;2023-09-30T10:46:32;9.40;;;4.57;;
9449;SDS011;4763;48.370;10.874;2023-09-30T10:49:31;8.02;;;4.25;;
9449;SDS011;4763;48.370;10.874;2023-09-30T10:52:21;9.25;;;4.60;;
9449;SDS011;4763;48.370;10.874;2023-09-30T10:55:08;7.88;;;4.03;;
9449;SDS011;4763;48.370;10.874;2023-09-30T10:57:57;8.90;;;4.28;;
9449;SDS011;4763;48.370;10.874;2023-09-30T11:00:51;10.13;;;4.63;;
9449;SDS011;4763;48.370;10.874;2023-09-30T11:03:39;9.55;;;4.60;;
9449;SDS011;4763;48.370;10.874;2023-09-30T11:06:27;13.18;;;4.90;;
9449;SDS011;4763;48.370;10.874;2023-09-30T11:09:15;9.68;;;5.28;;
9449;SDS011;4763;48.370;10.874;2023-09-30T11:12:02;8.15;;;4.43;;
9449;SDS011;4763;48.370;10.874;2023-09-30T11:14:58;8.50;;;4.78;;
9449;SDS011;4763;48.370;10.874;2023-09-30T11:17:45;10.25;;;5.18;;
9449;SDS011;4763;48.370;10.874;2023-09-30T11:20:32;9.05;;;4.38;;
9449;SDS011;4763;48.370;10.874;2023-09-30T11:23:19;11.65;;;6.53;;
9449;SDS011;4763;48.370;10.874;2023-09-30T11:26:07;10.93;;;5.78;;
9449;SDS011;4763;48.370;10.874;2023-09-30T11:28:54;16.42;;;6.28;;
9449;SDS011;4763;48.370;10.874;2023-09-30T11:31:43;10.27;;;5.32;;
9449;SDS011;4763;48.370;10.874;2023-09-30T11:34:33;16.30;;;6.60;;
9449;SDS011;4763;48.370;10.874;2023-09-30T11:37:21;12.10;;;6.35;;
9449;SDS011;4763;48.370;10.874;2023-09-30T11:40:09;12.23;;;6.13;;
9449;SDS011;4763;48.370;10.874;2023-09-30T11:43:06;16.58;;;6.25;;
9449;SDS011;4763;48.370;10.874;2023-09-30T11:46:03;11.95;;;6.28;;
9449;SDS011;4763;48.370;10.874;2023-09-30T11:48:57;14.60;;;6.82;;
9449;SDS011;4763;48.370;10.874;2023-09-30T11:51:45;13.68;;;6.47;;
9449;SDS011;4763;48.370;10.874;2023-09-30T11:54:33;12.93;;;6.28;;
9449;SDS011;4763;48.370;10.874;2023-09-30T11:57:23;13.95;;;7.07;;
9449;SDS011;4763;48.370;10.874;2023-09-30T12:00:10;13.70;;;6.97;;
9449;SDS011;4763;48.370;10.874;2023-09-30T12:02:59;11.30;;;6.13;;
9449;SDS011;4763;48.370;10.874;2023-09-30T12:05:48;13.57;;;6.13;;
9449;SDS011;4763;48.370;10.874;2023-09-30T12:08:35;12.43;;;5.68;;
9449;SDS011;4763;48.370;10.874;2023-09-30T12:11:23;13.77;;;7.03;;
9449;SDS011;4763;48.370;10.874;2023-09-30T12:14:11;14.07;;;6.53;;
9449;SDS011;4763;48.370;10.874;2023-09-30T12:16:59;12.10;;;6.53;;
9449;SDS011;4763;48.370;10.874;2023-09-30T12:19:46;13.68;;;6.10;;
9449;SDS011;4763;48.370;10.874;2023-09-30T12:22:35;10.60;;;5.80;;
9449;SDS011;4763;48.370;10.874;2023-09-30T12:25:22;12.43;;;5.95;;
9449;SDS011;4763;48.370;10.874;2023-09-30T12:28:10;10.73;;;5.85;;
9449;SDS011;4763;48.370;10.874;2023-09-30T12:30:59;15.25;;;6.25;;
9449;SDS011;4763;48.370;10.874;2023-09-30T12:33:48;10.55;;;5.78;;
9449;SDS011;4763;48.370;10.874;2023-09-30T12:36:36;10.70;;;5.53;;
9449;SDS011;4763;48.370;10.874;2023-09-30T12:39:25;10.85;;;5.40;;
9449;SDS011;4763;48.370;10.874;2023-09-30T12:42:15;11.10;;;5.78;;
9449;SDS011;4763;48.370;10.874;2023-09-30T12:45:03;12.23;;;5.22;;
9449;SDS011;4763;48.370;10.874;2023-09-30T12:47:51;11.77;;;5.65;;
9449;SDS011;4763;48.370;10.874;2023-09-30T12:50:39;12.07;;;6.32;;
9449;SDS011;4763;48.370;10.874;2023-09-30T12:53:26;10.23;;;5.72;;
9449;SDS011;4763;48.370;10.874;2023-09-30T12:56:15;11.30;;;6.18;;
9449;SDS011;4763;48.370;10.874;2023-09-30T12:59:02;12.63;;;6.22;;
9449;SDS011;4763;48.370;10.874;2023-09-30T13:01:49;13.52;;;6.00;;
9449;SDS011;4763;48.370;10.874;2023-09-30T13:04:36;12.02;;;6.55;;
9449;SDS011;4763;48.370;10.874;2023-09-30T13:07:28;10.98;;;5.55;;
9449;SDS011;4763;48.370;10.874;2023-09-30T13:10:15;11.18;;;5.88;;
9449;SDS011;4763;48.370;10.874;2023-09-30T13:13:03;11.23;;;5.82;;
9449;SDS011;4763;48.370;10.874;2023-09-30T13:15:50;11.82;;;6.28;;
9449;SDS011;4763;48.370;10.874;2023-09-30T13:18:38;12.35;;;5.53;;
9449;SDS011;4763;48.370;10.874;2023-09-30T13:21:25;12.30;;;6.32;;
9449;SDS011;4763;48.370;10.874;2023-09-30T13:24:12;13.02;;;6.30;;
9449;SDS011;4763;48.370;10.874;2023-09-30T13:26:59;10.98;;;5.90;;
9449;SDS011;4763;48.370;10.874;2023-09-30T13:29:48;13.50;;;6.20;;
9449;SDS011;4763;48.370;10.874;2023-09-30T13:32:35;12.32;;;6.35;;
9449;SDS011;4763;48.370;10.874;2023-09-30T13:35:22;13.13;;;6.43;;
9449;SDS011;4763;48.370;10.874;2023-09-30T13:38:09;16.15;;;7.68;;
9449;SDS011;4763;48.370;10.874;2023-09-30T13:40:56;12.05;;;6.68;;
9449;SDS011;4763;48.370;10.874;2023-09-30T13:43:43;14.50;;;6.60;;
9449;SDS011;4763;48.370;10.874;2023-09-30T13:46:32;10.82;;;5.63;;
9449;SDS011;4763;48.370;10.874;2023-09-30T13:49:19;17.73;;;7.25;;
9449;SDS011;4763;48.370;10.874;2023-09-30T13:52:06;14.20;;;7.18;;
9449;SDS011;4763;48.370;10.874;2023-09-30T13:54:53;12.75;;;7.03;;
9449;SDS011;4763;48.370;10.874;2023-09-30T13:57:40;12.52;;;6.90;;
9449;SDS011;4763;48.370;10.874;2023-09-30T14:00:28;12.88;;;6.38;;
9449;SDS011;4763;48.370;10.874;2023-09-30T14:03:16;12.57;;;6.53;;
9449;SDS011;4763;48.370;10.874;2023-09-30T14:06:08;15.35;;;7.38;;
9449;SDS011;4763;48.370;10.874;2023-09-30T14:08:57;12.80;;;7.53;;
9449;SDS011;4763;48.370;10.874;2023-09-30T14:11:44;13.27;;;6.93;;
9449;SDS011;4763;48.370;10.874;2023-09-30T14:14:32;15.23;;;7.72;;
9449;SDS011;4763;48.370;10.874;2023-09-30T14:17:20;15.70;;;7.22;;
9449;SDS011;4763;48.370;10.874;2023-09-30T14:20:09;14.48;;;6.75;;
9449;SDS011;4763;48.370;10.874;2023-09-30T14:22:57;16.77;;;8.43;;
9449;SDS011;4763;48.370;10.874;2023-09-30T14:25:44;18.08;;;7.70;;
9449;SDS011;4763;48.370;10.874;2023-09-30T14:28:31;14.00;;;7.43;;
9449;SDS011;4763;48.370;10.874;2023-09-30T14:31:18;15.23;;;7.45;;
9449;SDS011;4763;48.370;10.874;2023-09-30T14:34:05;15.23;;;6.97;;
9449;SDS011;4763;48.370;10.874;2023-09-30T14:36:54;11.98;;;6.57;;
9449;SDS011;4763;48.370;10.874;2023-09-30T14:39:41;12.05;;;7.45;;
9449;SDS011;4763;48.370;10.874;2023-09-30T14:42:28;15.40;;;5.90;;
9449;SDS011;4763;48.370;10.874;2023-09-30T14:45:15;13.30;;;6.60;;
9449;SDS011;4763;48.370;10.874;2023-09-30T14:48:02;13.98;;;6.60;;
9449;SDS011;4763;48.370;10.874;2023-09-30T14:50:50;11.82;;;6.53;;
9449;SDS011;4763;48.370;10.874;2023-09-30T14:53:39;13.05;;;6.57;;
9449;SDS011;4763;48.370;10.874;2023-09-30T14:56:26;15.18;;;7.22;;
9449;SDS011;4763;48.370;10.874;2023-09-30T14:59:13;11.57;;;5.97;;
9449;SDS011;4763;48.370;10.874;2023-09-30T15:02:00;15.80;;;6.82;;
9449;SDS011;4763;48.370;10.874;2023-09-30T15:04:47;12.32;;;6.07;;
9449;SDS011;4763;48.370;10.874;2023-09-30T15:07:34;13.82;;;6.38;;
9449;SDS011;4763;48.370;10.874;2023-09-30T15:10:24;16.90;;;6.38;;
9449;SDS011;4763;48.370;10.874;2023-09-30T15:13:11;13.65;;;6.22;;
9449;SDS011;4763;48.370;10.874;2023-09-30T15:15:58;14.95;;;7.03;;
9449;SDS011;4763;48.370;10.874;2023-09-30T15:18:45;13.30;;;6.90;;
9449;SDS011;4763;48.370;10.874;2023-09-30T15:21:33;12.65;;;6.43;;
9449;SDS011;4763;48.370;10.874;2023-09-30T15:24:20;13.38;;;6.93;;
9449;SDS011;4763;48.370;10.874;2023-09-30T15:27:08;12.82;;;6.72;;
9449;SDS011;4763;48.370;10.874;2023-09-30T15:29:55;12.63;;;6.38;;
9449;SDS011;4763;48.370;10.874;2023-09-30T15:32:43;11.77;;;5.82;;
9449;SDS011;4763;48.370;10.874;2023-09-30T15:35:30;10.60;;;6.18;;
9449;SDS011;4763;48.370;10.874;2023-09-30T15:38:18;15.85;;;6.90;;
9449;SDS011;4763;48.370;10.874;2023-09-30T15:41:05;12.98;;;6.07;;
9449;SDS011;4763;48.370;10.874;2023-09-30T15:43:53;12.75;;;6.55;;
9449;SDS011;4763;48.370;10.874;2023-09-30T15:46:45;14.38;;;7.07;;
9449;SDS011;4763;48.370;10.874;2023-09-30T15:49:32;11.70;;;6.07;;
9449;SDS011;4763;48.370;10.874;2023-09-30T15:52:19;17.60;;;6.47;;
9449;SDS011;4763;48.370;10.874;2023-09-30T15:55:07;26.33;;;12.98;;
9449;SDS011;4763;48.370;10.874;2023-09-30T15:57:54;14.63;;;8.85;;
9449;SDS011;4763;48.370;10.874;2023-09-30T16:00:42;15.55;;;6.65;;
9449;SDS011;4763;48.370;10.874;2023-09-30T16:03:30;13.52;;;6.32;;
9449;SDS011;4763;48.370;10.874;2023-09-30T16:06:17;14.75;;;7.80;;
9449;SDS011;4763;48.370;10.874;2023-09-30T16:09:04;17.52;;;10.55;;
9449;SDS011;4763;48.370;10.874;2023-09-30T16:11:51;45.10;;;24.83;;
9449;SDS011;4763;48.370;10.874;2023-09-30T16:14:38;60.33;;;37.08;;
9449;SDS011;4763;48.370;10.874;2023-09-30T16:17:26;62.40;;;39.70;;
9449;SDS011;4763;48.370;10.874;2023-09-30T16:20:14;55.03;;;32.88;;
9449;SDS011;4763;48.370;10.874;2023-09-30T16:23:01;65.35;;;38.85;;
9449;SDS011;4763;48.370;10.874;2023-09-30T16:25:48;71.00;;;44.22;;
9449;SDS011;4763;48.370;10.874;2023-09-30T16:28:35;97.50;;;60.75;;
9449;SDS011;4763;48.370;10.874;2023-09-30T16:31:22;154.20;;;98.00;;
9449;SDS011;4763;48.370;10.874;2023-09-30T16:34:10;197.05;;;125.15;;
9449;SDS011;4763;48.370;10.874;2023-09-30T16:36:57;141.65;;;86.78;;
9449;SDS011;4763;48.370;10.874;2023-09-30T16:39:45;92.30;;;59.25;;
9449;SDS011;4763;48.370;10.874;2023-09-30T16:42:32;78.07;;;48.30;;
9449;SDS011;4763;48.370;10.874;2023-09-30T16:45:19;58.80;;;36.45;;
9449;SDS011;4763;48.370;10.874;2023-09-30T16:48:06;34.90;;;22.52;;
9449;SDS011;4763;48.370;10.874;2023-09-30T16:50:56;34.05;;;21.67;;
9449;SDS011;4763;48.370;10.874;2023-09-30T16:53:43;30.33;;;17.98;;
9449;SDS011;4763;48.370;10.874;2023-09-30T16:56:30;25.00;;;15.15;;